Terminal Aerodrome Forecast
Issued by NWS

Home | Current Version | Previous Version | Text Only | Print | Product List | Glossary On
Versions: 1 2 3 4 5 6 7 8 9 10 11 12 13 14 15 16 17 18 19
455
FTUS43 KMPX 091140
TAFAXN
TAF
KAXN 091140Z 0912/1012 29006KT P6SM -SN OVC015
     FM092000 31005KT P6SM FEW020 BKN100=

USA.gov is the U.S. government's official web portal to all federal, state and local government web resources and services.